Aeroporto :
LOGIN :

Iscrizione | Disclaimer

   EN    FR    IT 

 










Sommario :    VFR   VFR Marginale   IFR   IFR Intensivo   IFR Molto Intensivo
Visibilità : 
Base nubi : 
>= 8 km
>= 3000ft
5 / 8 km
1000 / 3000 ft
1500m / 5 km
500 / 1000 ft
800 / 1500m
200 / 500 ft
< 800m
< 200 ft
Simboli :   Temporali  Nebbia  Neve Forte  Precipitazioni Forti  Vento > 20 kt
SIGMETs :   Varie  Temporali  Ghiacco  Turbolenza  Onda orograficha  Ceneri Vulcaniche







- Altitudine del aeroporto : 433 ft
- Codice IATA : CCF
- Carte del aeroporto


LFMK - Carcassonne

ULTIMO METAR :
  • 181630Z AUTO 09017KT CAVOK 12/07 Q1020 NOSIG

METARs OBSOLETI :
  • 181600Z AUTO 09017KT CAVOK 13/07 Q1020 NOSIG
  • 181530Z AUTO 09016KT CAVOK 13/07 Q1020 NOSIG
  • 181500Z AUTO 09017KT 070V130 CAVOK 14/06 Q1020 NOSIG
  • 181430Z AUTO 09017KT CAVOK 14/07 Q1020 NOSIG
  • 181400Z AUTO 09019KT CAVOK 14/06 Q1020 BECMG OVC010

TAF TAF LFMK
Valido dal 18 a 15 ore il 19 a 15 ore UTC


181400Z 1815/1915 09020KT 9999 SCT025
TEMPO 1818/1910 BKN015
BECMG 1821/1823 09010KT
BECMG 1904/1906 VRB05KT
Nessun NOTAM noto per questo aeroporto.



MetMap, La meteo Aeronautica in un colpo d'occhio ! - Copyright ORBIFLY Dicembre 2007 - Disclaimer

ORBIFLY MET'MAP TEAM :

Programmazione e sviluppo : Alexandra Zaïnal
Concezione e sviluppo : Baudouin d'Aumeries
Co-Programmazione e sviluppo : Marc-Olivier Méhu
Supporto tecnico e logistico : Manuel Goepfert
Aiuto per la traduzione : Arnaldo La Scala

Contatto : metmap@orbifly.com




FONTI E CREDITI :

   NOAA